Time,TemperatureF,DewpointF,PressureIn,WindDirection,WindDirectionDegrees,WindSpeedMPH,WindSpeedGustMPH,Humidity,HourlyPrecipIn,Conditions,Clouds,dailyrainin,SoftwareType,DateUTC
2013-03-27 00:09:00,40.2,33.0,30.34,ENE,61,0.0,3.0,74,0.00,,,0.00,weatherlink.com 1.10,2013-03-27 05:09:00,
2013-03-27 00:24:00,40.7,32.0,30.35,ENE,61,0.0,1.0,72,0.00,,,0.00,weatherlink.com 1.10,2013-03-27 05:24:00,
2013-03-27 00:39:00,40.1,32.0,30.35,ENE,61,0.0,0.0,73,0.00,,,0.00,weatherlink.com 1.10,2013-03-27 05:39:00,
2013-03-27 00:54:00,39.6,33.0,30.35,ENE,61,0.0,0.0,76,0.00,,,0.00,weatherlink.com 1.10,2013-03-27 05:54:00,
2013-03-27 01:09:00,38.6,33.0,30.35,ENE,61,0.0,0.0,80,0.00,,,0.00,weatherlink.com 1.10,2013-03-27 06:09:00,
2013-03-27 01:24:00,37.7,33.0,30.35,ENE,61,0.0,0.0,82,0.00,,,0.00,weatherlink.com 1.10,2013-03-27 06:24:00,
2013-03-27 01:39:00,37.0,33.0,30.35,ENE,61,0.0,0.0,84,0.00,,,0.00,weatherlink.com 1.10,2013-03-27 06:39:00,
2013-03-27 01:54:00,36.6,33.0,30.35,ENE,61,0.0,0.0,86,0.00,,,0.00,weatherlink.com 1.10,2013-03-27 06:54:00,
2013-03-27 02:09:00,36.0,33.0,30.35,ENE,61,0.0,0.0,87,0.00,,,0.00,weatherlink.com 1.10,2013-03-27 07:09:00,
2013-03-27 02:24:00,35.7,33.0,30.35,ENE,61,0.0,0.0,89,0.00,,,0.00,weatherlink.com 1.10,2013-03-27 07:24:00,
2013-03-27 02:39:00,35.4,33.0,30.34,ENE,61,0.0,0.0,89,0.00,,,0.00,weatherlink.com 1.10,2013-03-27 07:39:00,
2013-03-27 02:54:00,35.9,33.0,30.34,ENE,61,0.0,0.0,89,0.00,,,0.00,weatherlink.com 1.10,2013-03-27 07:54:00,
2013-03-27 03:09:00,36.7,33.0,30.34,ENE,61,0.0,0.0,86,0.00,,,0.00,weatherlink.com 1.10,2013-03-27 08:09:00,
2013-03-27 03:24:00,37.2,33.0,30.34,ENE,61,0.0,1.0,84,0.00,,,0.00,weatherlink.com 1.10,2013-03-27 08:24:00,
2013-03-27 03:39:00,37.5,33.0,30.34,ENE,60,0.0,2.0,82,0.00,,,0.00,weatherlink.com 1.10,2013-03-27 08:39:00,
2013-03-27 03:54:00,37.7,32.0,30.34,ENE,60,0.0,1.0,81,0.00,,,0.00,weatherlink.com 1.10,2013-03-27 08:54:00,
2013-03-27 04:10:00,37.4,32.0,30.35,ENE,60,0.0,0.0,81,0.00,,,0.00,weatherlink.com 1.10,2013-03-27 09:10:00,
2013-03-27 04:25:00,36.9,32.0,30.35,ENE,60,0.0,0.0,82,0.00,,,0.00,weatherlink.com 1.10,2013-03-27 09:25:00,
2013-03-27 04:40:00,36.1,32.0,30.34,ENE,60,0.0,0.0,84,0.00,,,0.00,weatherlink.com 1.10,2013-03-27 09:40:00,
2013-03-27 04:55:00,36.8,32.0,30.34,ENE,71,0.0,3.0,84,0.00,,,0.00,weatherlink.com 1.10,2013-03-27 09:55:00,
2013-03-27 05:10:00,37.5,33.0,30.34,East,80,3.0,6.0,82,0.00,,,0.00,weatherlink.com 1.10,2013-03-27 10:10:00,
2013-03-27 05:25:00,38.2,32.0,30.34,East,86,2.0,6.0,79,0.00,,,0.00,weatherlink.com 1.10,2013-03-27 10:25:00,
2013-03-27 05:40:00,38.4,32.0,30.34,ENE,76,0.0,4.0,79,0.00,,,0.00,weatherlink.com 1.10,2013-03-27 10:40:00,
2013-03-27 05:55:00,37.8,32.0,30.35,ENE,74,0.0,2.0,80,0.00,,,0.00,weatherlink.com 1.10,2013-03-27 10:55:00,
2013-03-27 06:10:00,37.1,32.0,30.35,ENE,74,0.0,2.0,81,0.00,,,0.00,weatherlink.com 1.10,2013-03-27 11:10:00,
2013-03-27 06:25:00,36.7,32.0,30.36,ENE,77,1.0,3.0,83,0.00,,,0.00,weatherlink.com 1.10,2013-03-27 11:25:00,
2013-03-27 06:40:00,37.1,32.0,30.36,East,82,2.0,5.0,82,0.00,,,0.00,weatherlink.com 1.10,2013-03-27 11:40:00,
2013-03-27 06:55:00,37.3,32.0,30.36,East,80,3.0,3.0,81,0.00,,,0.00,weatherlink.com 1.10,2013-03-27 11:55:00,
2013-03-27 07:10:00,37.5,32.0,30.37,East,93,0.0,3.0,81,0.00,,,0.00,weatherlink.com 1.10,2013-03-27 12:10:00,
2013-03-27 07:25:00,37.8,32.0,30.37,ENE,71,1.0,5.0,80,0.00,,,0.00,weatherlink.com 1.10,2013-03-27 12:25:00,
2013-03-27 07:40:00,38.9,33.0,30.38,ENE,67,2.0,5.0,79,0.00,,,0.00,weatherlink.com 1.10,2013-03-27 12:40:00,
2013-03-27 07:55:00,40.7,34.0,30.39,East,80,6.0,7.0,76,0.00,,,0.00,weatherlink.com 1.10,2013-03-27 12:55:00,
2013-03-27 08:10:00,42.2,35.0,30.39,East,98,5.0,6.0,75,0.00,,,0.00,weatherlink.com 1.10,2013-03-27 13:10:00,
2013-03-27 08:25:00,43.8,35.0,30.39,ESE,106,3.0,8.0,72,0.00,,,0.00,weatherlink.com 1.10,2013-03-27 13:25:00,
2013-03-27 08:40:00,45.6,36.0,30.41,East,101,5.0,7.0,68,0.00,,,0.00,weatherlink.com 1.10,2013-03-27 13:40:00,
2013-03-27 08:55:00,46.4,34.0,30.41,ESE,120,4.0,10.0,62,0.00,,,0.00,weatherlink.com 1.10,2013-03-27 13:55:00,
2013-03-27 09:10:00,47.8,34.0,30.42,East,101,6.0,10.0,59,0.00,,,0.00,weatherlink.com 1.10,2013-03-27 14:10:00,
2013-03-27 09:25:00,49.5,35.0,30.42,ESE,110,4.0,9.0,58,0.00,,,0.00,weatherlink.com 1.10,2013-03-27 14:25:00,
2013-03-27 09:40:00,50.3,35.0,30.42,ESE,113,4.0,8.0,56,0.00,,,0.00,weatherlink.com 1.10,2013-03-27 14:40:00,
2013-03-27 09:55:00,52.3,35.0,30.42,East,79,3.0,8.0,53,0.00,,,0.00,weatherlink.com 1.10,2013-03-27 14:55:00,
2013-03-27 10:10:00,53.3,36.0,30.42,East,99,2.0,8.0,53,0.00,,,0.00,weatherlink.com 1.10,2013-03-27 15:10:00,
2013-03-27 10:25:00,54.7,35.0,30.42,ESE,106,5.0,9.0,48,0.00,,,0.00,weatherlink.com 1.10,2013-03-27 15:25:00,
2013-03-27 10:41:00,55.4,35.0,30.42,ENE,61,4.0,8.0,46,0.00,,,0.00,weatherlink.com 1.10,2013-03-27 15:41:00,
2013-03-27 10:56:00,55.9,32.0,30.42,ESE,110,3.0,7.0,41,0.00,,,0.00,weatherlink.com 1.10,2013-03-27 15:56:00,
2013-03-27 11:11:00,56.0,36.0,30.41,East,88,2.0,7.0,47,0.00,,,0.00,weatherlink.com 1.10,2013-03-27 16:11:00,
2013-03-27 11:26:00,57.8,36.0,30.41,ESE,123,4.0,8.0,44,0.00,,,0.00,weatherlink.com 1.10,2013-03-27 16:26:00,
2013-03-27 11:41:00,58.3,34.0,30.40,SE,144,0.0,6.0,41,0.00,,,0.00,weatherlink.com 1.10,2013-03-27 16:41:00,
2013-03-27 12:11:00,61.5,36.0,30.40,NE,53,0.0,4.0,39,0.00,,,0.00,weatherlink.com 1.10,2013-03-27 17:11:00,
2013-03-27 12:41:00,60.9,35.0,30.39,ESE,113,2.0,6.0,38,0.00,,,0.00,weatherlink.com 1.10,2013-03-27 17:41:00,
2013-03-27 13:11:00,60.3,35.0,30.37,SSW,211,2.0,8.0,39,0.00,,,0.00,weatherlink.com 1.10,2013-03-27 18:11:00,
2013-03-27 13:41:00,62.6,36.0,30.35,WSW,237,3.0,10.0,38,0.00,,,0.00,weatherlink.com 1.10,2013-03-27 18:41:00,
2013-03-27 13:56:00,63.6,37.0,30.34,NNE,15,1.0,7.0,37,0.00,,,0.00,weatherlink.com 1.10,2013-03-27 18:56:00,
2013-03-27 14:26:00,62.5,34.0,30.32,South,178,5.0,6.0,35,0.00,,,0.00,weatherlink.com 1.10,2013-03-27 19:26:00,
2013-03-27 14:41:00,61.9,34.0,30.31,SE,135,1.0,7.0,35,0.00,,,0.00,weatherlink.com 1.10,2013-03-27 19:41:00,
2013-03-27 14:56:00,64.3,37.0,30.30,NE,44,2.0,6.0,36,0.00,,,0.00,weatherlink.com 1.10,2013-03-27 19:56:00,
2013-03-27 15:11:00,66.0,36.0,30.30,NE,53,4.0,6.0,33,0.00,,,0.00,weatherlink.com 1.10,2013-03-27 20:11:00,
2013-03-27 15:26:00,66.5,37.0,30.29,North,355,0.0,5.0,34,0.00,,,0.00,weatherlink.com 1.10,2013-03-27 20:26:00,
2013-03-27 15:41:00,65.6,36.0,30.28,NE,39,1.0,6.0,34,0.00,,,0.00,weatherlink.com 1.10,2013-03-27 20:41:00,
2013-03-27 15:56:00,65.8,34.0,30.28,WNW,286,1.0,6.0,31,0.00,,,0.00,weatherlink.com 1.10,2013-03-27 20:56:00,
2013-03-27 16:11:00,64.8,35.0,30.27,WSW,242,4.0,6.0,33,0.00,,,0.00,weatherlink.com 1.10,2013-03-27 21:11:00,
2013-03-27 16:26:00,64.5,35.0,30.27,SSE,166,2.0,4.0,33,0.00,,,0.00,weatherlink.com 1.10,2013-03-27 21:26:00,
2013-03-27 16:41:00,64.7,35.0,30.28,WSW,240,0.0,6.0,33,0.00,,,0.00,weatherlink.com 1.10,2013-03-27 21:41:00,
2013-03-27 16:56:00,65.9,36.0,30.27,West,273,2.0,5.0,33,0.00,,,0.00,weatherlink.com 1.10,2013-03-27 21:56:00,
2013-03-27 17:11:00,65.4,37.0,30.27,WSW,247,1.0,5.0,35,0.00,,,0.00,weatherlink.com 1.10,2013-03-27 22:11:00,
2013-03-27 17:26:00,64.8,35.0,30.27,SW,228,4.0,7.0,33,0.00,,,0.00,weatherlink.com 1.10,2013-03-27 22:26:00,
2013-03-27 17:41:00,65.4,35.0,30.26,West,259,5.0,6.0,33,0.00,,,0.00,weatherlink.com 1.10,2013-03-27 22:41:00,
2013-03-27 17:57:00,64.4,35.0,30.26,SW,222,1.0,5.0,33,0.00,,,0.00,weatherlink.com 1.10,2013-03-27 22:57:00,
2013-03-27 18:11:00,65.3,35.0,30.25,West,265,2.0,2.0,32,0.00,,,0.00,weatherlink.com 1.10,2013-03-27 23:11:00,
2013-03-27 18:27:00,65.5,36.0,30.24,West,279,0.0,2.0,33,0.00,,,0.00,weatherlink.com 1.10,2013-03-27 23:27:00,
2013-03-27 18:42:00,65.1,34.0,30.23,West,279,0.0,1.0,31,0.00,,,0.00,weatherlink.com 1.10,2013-03-27 23:42:00,
2013-03-27 18:57:00,64.0,36.0,30.23,West,279,0.0,0.0,35,0.00,,,0.00,weatherlink.com 1.10,2013-03-27 23:57:00,
2013-03-27 19:12:00,63.3,40.0,30.23,West,279,0.0,0.0,43,0.00,,,0.00,weatherlink.com 1.10,2013-03-28 00:12:00,
2013-03-27 19:27:00,59.6,37.0,30.23,South,169,2.0,4.0,43,0.00,,,0.00,weatherlink.com 1.10,2013-03-28 00:27:00,
2013-03-27 19:42:00,56.8,40.0,30.24,South,186,3.0,8.0,53,0.00,,,0.00,weatherlink.com 1.10,2013-03-28 00:42:00,
2013-03-27 19:57:00,55.1,40.0,30.25,South,179,4.0,6.0,58,0.00,,,0.00,weatherlink.com 1.10,2013-03-28 00:57:00,
2013-03-27 20:12:00,53.7,40.0,30.25,South,180,4.0,5.0,61,0.00,,,0.00,weatherlink.com 1.10,2013-03-28 01:12:00,
2013-03-27 20:27:00,52.4,40.0,30.25,South,173,1.0,3.0,63,0.00,,,0.00,weatherlink.com 1.10,2013-03-28 01:27:00,
2013-03-27 20:42:00,51.4,40.0,30.25,South,175,1.0,4.0,65,0.00,,,0.00,weatherlink.com 1.10,2013-03-28 01:42:00,
2013-03-27 20:57:00,51.0,40.0,30.25,South,171,1.0,3.0,65,0.00,,,0.00,weatherlink.com 1.10,2013-03-28 01:57:00,
2013-03-27 21:12:00,50.8,40.0,30.26,South,176,2.0,3.0,66,0.00,,,0.00,weatherlink.com 1.10,2013-03-28 02:12:00,
2013-03-27 21:27:00,50.4,39.0,30.27,South,178,1.0,3.0,66,0.00,,,0.00,weatherlink.com 1.10,2013-03-28 02:27:00,
2013-03-27 21:42:00,50.0,40.0,30.27,South,178,1.0,3.0,68,0.00,,,0.00,weatherlink.com 1.10,2013-03-28 02:42:00,
2013-03-27 21:57:00,49.7,40.0,30.28,South,188,1.0,3.0,70,0.00,,,0.00,weatherlink.com 1.10,2013-03-28 02:57:00,
2013-03-27 22:12:00,49.3,40.0,30.28,SSW,193,0.0,3.0,71,0.00,,,0.00,weatherlink.com 1.10,2013-03-28 03:12:00,
2013-03-27 22:27:00,48.5,40.0,30.28,SSW,193,0.0,0.0,73,0.00,,,0.00,weatherlink.com 1.10,2013-03-28 03:27:00,
2013-03-27 22:42:00,47.7,40.0,30.29,SSW,193,0.0,0.0,75,0.00,,,0.00,weatherlink.com 1.10,2013-03-28 03:42:00,
2013-03-27 22:57:00,47.4,40.0,30.29,South,191,0.0,2.0,76,0.00,,,0.00,weatherlink.com 1.10,2013-03-28 03:57:00,
2013-03-27 23:12:00,46.5,40.0,30.29,South,191,0.0,0.0,78,0.00,,,0.00,weatherlink.com 1.10,2013-03-28 04:12:00,
2013-03-27 23:27:00,45.3,40.0,30.29,South,191,0.0,0.0,81,0.00,,,0.00,weatherlink.com 1.10,2013-03-28 04:27:00,
2013-03-27 23:42:00,44.4,40.0,30.29,South,191,0.0,0.0,83,0.00,,,0.00,weatherlink.com 1.10,2013-03-28 04:42:00,
2013-03-27 23:57:00,43.5,40.0,30.29,South,191,0.0,0.0,86,0.00,,,0.00,weatherlink.com 1.10,2013-03-28 04:57:00,